sensor_id;sensor_type;location;lat;lon;timestamp;temperature;humidity
20416;DHT22;10367;52.202;5.996;2023-10-19T00:00:14;9.20;99.90
20416;DHT22;10367;52.202;5.996;2023-10-19T00:02:49;9.20;99.90
20416;DHT22;10367;52.202;5.996;2023-10-19T00:05:20;9.20;99.90
20416;DHT22;10367;52.202;5.996;2023-10-19T00:07:50;9.20;99.90
20416;DHT22;10367;52.202;5.996;2023-10-19T00:10:20;9.30;99.90
20416;DHT22;10367;52.202;5.996;2023-10-19T00:12:53;9.30;99.90
20416;DHT22;10367;52.202;5.996;2023-10-19T00:15:27;9.30;99.90
20416;DHT22;10367;52.202;5.996;2023-10-19T00:17:59;9.30;99.90
20416;DHT22;10367;52.202;5.996;2023-10-19T00:20:43;9.30;99.90
20416;DHT22;10367;52.202;5.996;2023-10-19T00:23:23;9.40;99.90
20416;DHT22;10367;52.202;5.996;2023-10-19T00:26:02;9.40;99.90
20416;DHT22;10367;52.202;5.996;2023-10-19T00:28:47;9.40;99.90
20416;DHT22;10367;52.202;5.996;2023-10-19T00:31:20;9.40;99.90
20416;DHT22;10367;52.202;5.996;2023-10-19T00:33:51;9.50;99.90
20416;DHT22;10367;52.202;5.996;2023-10-19T00:36:20;9.50;99.90
20416;DHT22;10367;52.202;5.996;2023-10-19T00:38:52;9.50;99.90
20416;DHT22;10367;52.202;5.996;2023-10-19T00:41:24;9.50;99.90
20416;DHT22;10367;52.202;5.996;2023-10-19T00:44:02;9.60;99.90
20416;DHT22;10367;52.202;5.996;2023-10-19T00:46:34;9.60;99.90
20416;DHT22;10367;52.202;5.996;2023-10-19T00:49:13;9.60;99.90
20416;DHT22;10367;52.202;5.996;2023-10-19T00:51:47;9.60;99.90
20416;DHT22;10367;52.202;5.996;2023-10-19T00:54:25;9.60;99.90
20416;DHT22;10367;52.202;5.996;2023-10-19T00:57:02;9.60;99.90
20416;DHT22;10367;52.202;5.996;2023-10-19T00:59:43;9.70;99.90
20416;DHT22;10367;52.202;5.996;2023-10-19T01:02:17;9.70;99.90
20416;DHT22;10367;52.202;5.996;2023-10-19T01:04:49;9.70;99.90
20416;DHT22;10367;52.202;5.996;2023-10-19T01:10:17;9.70;99.90
20416;DHT22;10367;52.202;5.996;2023-10-19T01:12:48;9.80;99.90
20416;DHT22;10367;52.202;5.996;2023-10-19T01:15:21;9.80;99.90
20416;DHT22;10367;52.202;5.996;2023-10-19T01:17:59;9.80;99.90
20416;DHT22;10367;52.202;5.996;2023-10-19T01:20:32;9.80;99.90
20416;DHT22;10367;52.202;5.996;2023-10-19T01:23:25;9.90;99.90
20416;DHT22;10367;52.202;5.996;2023-10-19T01:26:00;9.90;99.90
20416;DHT22;10367;52.202;5.996;2023-10-19T01:28:37;9.90;99.90
20416;DHT22;10367;52.202;5.996;2023-10-19T01:31:17;9.90;99.90
20416;DHT22;10367;52.202;5.996;2023-10-19T01:34:01;10.00;99.90
20416;DHT22;10367;52.202;5.996;2023-10-19T01:36:34;10.00;99.90
20416;DHT22;10367;52.202;5.996;2023-10-19T01:39:13;10.00;99.90
20416;DHT22;10367;52.202;5.996;2023-10-19T01:41:43;10.00;99.90
20416;DHT22;10367;52.202;5.996;2023-10-19T01:44:12;10.00;99.90
20416;DHT22;10367;52.202;5.996;2023-10-19T01:46:49;10.10;99.90
20416;DHT22;10367;52.202;5.996;2023-10-19T01:49:22;10.10;99.90
20416;DHT22;10367;52.202;5.996;2023-10-19T01:51:56;10.10;99.90
20416;DHT22;10367;52.202;5.996;2023-10-19T01:54:29;10.20;99.90
20416;DHT22;10367;52.202;5.996;2023-10-19T01:57:14;10.20;99.90
20416;DHT22;10367;52.202;5.996;2023-10-19T01:59:46;10.20;99.90
20416;DHT22;10367;52.202;5.996;2023-10-19T02:02:17;10.30;99.90
20416;DHT22;10367;52.202;5.996;2023-10-19T02:04:52;10.20;99.90
20416;DHT22;10367;52.202;5.996;2023-10-19T02:07:26;10.30;99.90
20416;DHT22;10367;52.202;5.996;2023-10-19T02:09:59;10.30;99.90
20416;DHT22;10367;52.202;5.996;2023-10-19T02:12:38;10.30;99.90
20416;DHT22;10367;52.202;5.996;2023-10-19T02:15:09;10.30;99.90
20416;DHT22;10367;52.202;5.996;2023-10-19T02:17:37;10.40;99.90
20416;DHT22;10367;52.202;5.996;2023-10-19T02:20:08;10.40;99.90
20416;DHT22;10367;52.202;5.996;2023-10-19T02:22:57;10.40;99.90
20416;DHT22;10367;52.202;5.996;2023-10-19T02:25:27;10.50;99.90
20416;DHT22;10367;52.202;5.996;2023-10-19T02:28:03;10.50;99.90
20416;DHT22;10367;52.202;5.996;2023-10-19T02:30:34;10.50;99.90
20416;DHT22;10367;52.202;5.996;2023-10-19T02:33:04;10.60;99.90
20416;DHT22;10367;52.202;5.996;2023-10-19T02:35:37;10.60;99.90
20416;DHT22;10367;52.202;5.996;2023-10-19T02:38:06;10.60;99.90
20416;DHT22;10367;52.202;5.996;2023-10-19T02:40:37;10.60;99.90
20416;DHT22;10367;52.202;5.996;2023-10-19T02:43:11;10.70;99.90
20416;DHT22;10367;52.202;5.996;2023-10-19T02:45:45;10.60;99.90
20416;DHT22;10367;52.202;5.996;2023-10-19T02:48:15;10.70;99.90
20416;DHT22;10367;52.202;5.996;2023-10-19T02:50:47;10.70;99.90
20416;DHT22;10367;52.202;5.996;2023-10-19T02:53:20;10.70;99.90
20416;DHT22;10367;52.202;5.996;2023-10-19T02:55:50;10.80;99.90
20416;DHT22;10367;52.202;5.996;2023-10-19T02:58:25;10.80;99.90
20416;DHT22;10367;52.202;5.996;2023-10-19T03:00:54;10.80;99.90
20416;DHT22;10367;52.202;5.996;2023-10-19T03:03:25;10.80;99.90
20416;DHT22;10367;52.202;5.996;2023-10-19T03:05:53;10.80;99.90
20416;DHT22;10367;52.202;5.996;2023-10-19T03:08:26;10.90;99.90
20416;DHT22;10367;52.202;5.996;2023-10-19T03:10:57;10.90;99.90
20416;DHT22;10367;52.202;5.996;2023-10-19T03:13:32;10.90;99.90
20416;DHT22;10367;52.202;5.996;2023-10-19T03:16:03;10.90;99.90
20416;DHT22;10367;52.202;5.996;2023-10-19T03:18:40;11.00;99.90
20416;DHT22;10367;52.202;5.996;2023-10-19T03:21:12;11.00;99.90
20416;DHT22;10367;52.202;5.996;2023-10-19T03:23:41;11.00;99.90
20416;DHT22;10367;52.202;5.996;2023-10-19T03:26:13;11.10;99.90
20416;DHT22;10367;52.202;5.996;2023-10-19T03:29:07;11.10;99.90
20416;DHT22;10367;52.202;5.996;2023-10-19T03:31:40;11.10;99.90
20416;DHT22;10367;52.202;5.996;2023-10-19T03:34:12;11.10;99.90
20416;DHT22;10367;52.202;5.996;2023-10-19T03:36:44;11.20;99.90
20416;DHT22;10367;52.202;5.996;2023-10-19T03:39:13;11.20;99.90
20416;DHT22;10367;52.202;5.996;2023-10-19T03:41:49;11.30;99.90
20416;DHT22;10367;52.202;5.996;2023-10-19T03:44:20;11.30;99.90
20416;DHT22;10367;52.202;5.996;2023-10-19T03:46:54;11.30;99.90
20416;DHT22;10367;52.202;5.996;2023-10-19T03:49:25;11.30;99.90
20416;DHT22;10367;52.202;5.996;2023-10-19T03:52:06;11.40;99.90
20416;DHT22;10367;52.202;5.996;2023-10-19T03:54:58;11.40;99.90
20416;DHT22;10367;52.202;5.996;2023-10-19T03:57:28;11.40;99.90
20416;DHT22;10367;52.202;5.996;2023-10-19T03:59:58;11.40;99.90
20416;DHT22;10367;52.202;5.996;2023-10-19T04:02:27;11.40;99.90
20416;DHT22;10367;52.202;5.996;2023-10-19T04:04:57;11.40;99.90
20416;DHT22;10367;52.202;5.996;2023-10-19T04:07:26;11.50;99.90
20416;DHT22;10367;52.202;5.996;2023-10-19T04:09:59;11.50;99.90
20416;DHT22;10367;52.202;5.996;2023-10-19T04:12:43;11.60;99.90
20416;DHT22;10367;52.202;5.996;2023-10-19T04:15:12;11.60;99.90
20416;DHT22;10367;52.202;5.996;2023-10-19T04:17:44;11.70;99.90
20416;DHT22;10367;52.202;5.996;2023-10-19T04:20:15;11.80;99.90
20416;DHT22;10367;52.202;5.996;2023-10-19T04:23:10;11.80;99.90
20416;DHT22;10367;52.202;5.996;2023-10-19T04:25:43;11.90;99.90
20416;DHT22;10367;52.202;5.996;2023-10-19T04:28:17;11.90;99.90
20416;DHT22;10367;52.202;5.996;2023-10-19T04:30:59;11.90;99.90
20416;DHT22;10367;52.202;5.996;2023-10-19T04:33:34;11.80;99.90
20416;DHT22;10367;52.202;5.996;2023-10-19T04:36:04;11.80;99.90
20416;DHT22;10367;52.202;5.996;2023-10-19T04:38:36;11.80;99.90
20416;DHT22;10367;52.202;5.996;2023-10-19T04:41:06;11.80;99.90
20416;DHT22;10367;52.202;5.996;2023-10-19T04:43:46;11.80;99.90
20416;DHT22;10367;52.202;5.996;2023-10-19T04:46:21;11.80;99.90
20416;DHT22;10367;52.202;5.996;2023-10-19T04:48:50;12.00;99.90
20416;DHT22;10367;52.202;5.996;2023-10-19T04:51:24;12.00;99.90
20416;DHT22;10367;52.202;5.996;2023-10-19T04:53:53;12.10;99.90
20416;DHT22;10367;52.202;5.996;2023-10-19T04:56:22;12.10;99.90
20416;DHT22;10367;52.202;5.996;2023-10-19T04:58:55;12.10;99.90
20416;DHT22;10367;52.202;5.996;2023-10-19T05:01:24;12.10;99.90
20416;DHT22;10367;52.202;5.996;2023-10-19T05:03:55;12.20;99.90
20416;DHT22;10367;52.202;5.996;2023-10-19T05:06:29;12.20;99.90
20416;DHT22;10367;52.202;5.996;2023-10-19T05:08:58;12.20;99.90
20416;DHT22;10367;52.202;5.996;2023-10-19T05:11:28;12.20;99.90
20416;DHT22;10367;52.202;5.996;2023-10-19T05:14:09;12.30;99.90
20416;DHT22;10367;52.202;5.996;2023-10-19T05:16:42;12.30;99.90
20416;DHT22;10367;52.202;5.996;2023-10-19T05:19:13;12.20;99.90
20416;DHT22;10367;52.202;5.996;2023-10-19T05:21:47;12.20;99.90
20416;DHT22;10367;52.202;5.996;2023-10-19T05:24:30;12.20;99.90
20416;DHT22;10367;52.202;5.996;2023-10-19T05:27:00;12.20;99.90
20416;DHT22;10367;52.202;5.996;2023-10-19T05:29:31;12.20;99.90
20416;DHT22;10367;52.202;5.996;2023-10-19T05:32:00;12.20;99.90
20416;DHT22;10367;52.202;5.996;2023-10-19T05:34:31;12.10;99.90
20416;DHT22;10367;52.202;5.996;2023-10-19T05:37:03;12.10;99.90
20416;DHT22;10367;52.202;5.996;2023-10-19T05:39:37;12.10;99.90
20416;DHT22;10367;52.202;5.996;2023-10-19T05:42:06;12.00;99.90
20416;DHT22;10367;52.202;5.996;2023-10-19T05:44:40;12.10;99.90
20416;DHT22;10367;52.202;5.996;2023-10-19T05:47:08;12.00;99.90
20416;DHT22;10367;52.202;5.996;2023-10-19T05:49:39;12.00;99.90
20416;DHT22;10367;52.202;5.996;2023-10-19T05:52:15;12.00;99.90
20416;DHT22;10367;52.202;5.996;2023-10-19T05:54:45;12.00;99.90
20416;DHT22;10367;52.202;5.996;2023-10-19T05:57:17;12.00;99.90
20416;DHT22;10367;52.202;5.996;2023-10-19T05:59:54;12.00;99.90
20416;DHT22;10367;52.202;5.996;2023-10-19T06:02:23;11.90;99.90
20416;DHT22;10367;52.202;5.996;2023-10-19T06:05:00;12.00;99.90
20416;DHT22;10367;52.202;5.996;2023-10-19T06:07:29;11.90;99.90
20416;DHT22;10367;52.202;5.996;2023-10-19T06:10:03;11.90;99.90
20416;DHT22;10367;52.202;5.996;2023-10-19T06:12:37;11.90;99.90
20416;DHT22;10367;52.202;5.996;2023-10-19T06:15:17;11.90;99.90
20416;DHT22;10367;52.202;5.996;2023-10-19T06:17:46;11.90;99.90
20416;DHT22;10367;52.202;5.996;2023-10-19T06:20:20;12.00;99.90
20416;DHT22;10367;52.202;5.996;2023-10-19T06:22:55;11.90;99.90
20416;DHT22;10367;52.202;5.996;2023-10-19T06:25:35;12.00;99.90
20416;DHT22;10367;52.202;5.996;2023-10-19T06:28:05;12.00;99.90
20416;DHT22;10367;52.202;5.996;2023-10-19T06:30:38;12.10;99.90
20416;DHT22;10367;52.202;5.996;2023-10-19T06:33:11;12.10;99.90
20416;DHT22;10367;52.202;5.996;2023-10-19T06:35:44;12.10;99.90
20416;DHT22;10367;52.202;5.996;2023-10-19T06:38:17;12.10;99.90
20416;DHT22;10367;52.202;5.996;2023-10-19T06:40:47;12.20;99.90
20416;DHT22;10367;52.202;5.996;2023-10-19T06:43:20;12.10;99.90
20416;DHT22;10367;52.202;5.996;2023-10-19T06:45:56;12.20;99.90
20416;DHT22;10367;52.202;5.996;2023-10-19T06:48:26;12.20;99.90
20416;DHT22;10367;52.202;5.996;2023-10-19T06:50:57;12.30;99.90
20416;DHT22;10367;52.202;5.996;2023-10-19T06:53:29;12.30;99.90
20416;DHT22;10367;52.202;5.996;2023-10-19T06:55:59;12.40;99.90
20416;DHT22;10367;52.202;5.996;2023-10-19T06:58:28;12.40;99.90
20416;DHT22;10367;52.202;5.996;2023-10-19T07:00:58;12.40;99.90
20416;DHT22;10367;52.202;5.996;2023-10-19T07:03:36;12.40;99.90
20416;DHT22;10367;52.202;5.996;2023-10-19T07:06:08;12.40;99.90
20416;DHT22;10367;52.202;5.996;2023-10-19T07:08:41;12.40;99.90
20416;DHT22;10367;52.202;5.996;2023-10-19T07:11:11;12.50;99.90
20416;DHT22;10367;52.202;5.996;2023-10-19T07:13:40;12.50;99.90
20416;DHT22;10367;52.202;5.996;2023-10-19T07:16:16;12.50;99.90
20416;DHT22;10367;52.202;5.996;2023-10-19T07:18:50;12.50;99.90
20416;DHT22;10367;52.202;5.996;2023-10-19T07:21:24;12.50;99.90
20416;DHT22;10367;52.202;5.996;2023-10-19T07:24:02;12.60;99.90
20416;DHT22;10367;52.202;5.996;2023-10-19T07:26:35;12.60;99.90
20416;DHT22;10367;52.202;5.996;2023-10-19T07:29:16;12.70;99.90
20416;DHT22;10367;52.202;5.996;2023-10-19T07:31:48;12.70;99.90
20416;DHT22;10367;52.202;5.996;2023-10-19T07:34:22;12.80;99.90
20416;DHT22;10367;52.202;5.996;2023-10-19T07:36:55;12.80;99.90
20416;DHT22;10367;52.202;5.996;2023-10-19T07:39:26;12.90;99.90
20416;DHT22;10367;52.202;5.996;2023-10-19T07:41:57;12.90;99.90
20416;DHT22;10367;52.202;5.996;2023-10-19T07:44:26;13.00;99.90
20416;DHT22;10367;52.202;5.996;2023-10-19T07:47:06;13.00;99.90
20416;DHT22;10367;52.202;5.996;2023-10-19T07:49:36;13.10;99.90
20416;DHT22;10367;52.202;5.996;2023-10-19T07:52:09;13.10;99.90
20416;DHT22;10367;52.202;5.996;2023-10-19T07:54:38;13.10;99.90
20416;DHT22;10367;52.202;5.996;2023-10-19T07:57:13;13.20;99.90
20416;DHT22;10367;52.202;5.996;2023-10-19T07:59:45;13.20;99.90
20416;DHT22;10367;52.202;5.996;2023-10-19T08:02:16;13.20;99.90
20416;DHT22;10367;52.202;5.996;2023-10-19T08:04:46;13.30;99.90
20416;DHT22;10367;52.202;5.996;2023-10-19T08:07:21;13.40;99.90
20416;DHT22;10367;52.202;5.996;2023-10-19T08:09:56;13.40;99.90
20416;DHT22;10367;52.202;5.996;2023-10-19T08:12:31;13.50;99.90
20416;DHT22;10367;52.202;5.996;2023-10-19T08:15:00;13.50;99.90
20416;DHT22;10367;52.202;5.996;2023-10-19T08:17:32;13.40;99.90
20416;DHT22;10367;52.202;5.996;2023-10-19T08:20:17;13.40;99.90
20416;DHT22;10367;52.202;5.996;2023-10-19T08:22:52;13.50;99.90
20416;DHT22;10367;52.202;5.996;2023-10-19T08:25:30;13.50;99.90
20416;DHT22;10367;52.202;5.996;2023-10-19T08:28:21;13.60;99.90
20416;DHT22;10367;52.202;5.996;2023-10-19T08:30:53;13.60;99.90
20416;DHT22;10367;52.202;5.996;2023-10-19T08:33:30;13.70;99.90
20416;DHT22;10367;52.202;5.996;2023-10-19T08:36:06;13.80;99.90
20416;DHT22;10367;52.202;5.996;2023-10-19T08:38:35;13.80;99.90
20416;DHT22;10367;52.202;5.996;2023-10-19T08:41:04;13.90;99.90
20416;DHT22;10367;52.202;5.996;2023-10-19T08:43:35;13.90;99.90
20416;DHT22;10367;52.202;5.996;2023-10-19T08:46:07;13.90;99.90
20416;DHT22;10367;52.202;5.996;2023-10-19T08:48:37;13.90;99.90
20416;DHT22;10367;52.202;5.996;2023-10-19T08:51:09;13.90;99.90
20416;DHT22;10367;52.202;5.996;2023-10-19T08:53:38;14.00;99.90
20416;DHT22;10367;52.202;5.996;2023-10-19T08:56:12;14.00;99.90
20416;DHT22;10367;52.202;5.996;2023-10-19T08:58:47;14.00;99.90
20416;DHT22;10367;52.202;5.996;2023-10-19T09:01:18;14.00;99.90
20416;DHT22;10367;52.202;5.996;2023-10-19T09:03:48;14.00;99.90
20416;DHT22;10367;52.202;5.996;2023-10-19T09:06:20;14.10;99.90
20416;DHT22;10367;52.202;5.996;2023-10-19T09:08:51;14.10;99.90
20416;DHT22;10367;52.202;5.996;2023-10-19T09:11:20;14.20;99.90
20416;DHT22;10367;52.202;5.996;2023-10-19T09:13:50;14.30;99.90
20416;DHT22;10367;52.202;5.996;2023-10-19T09:16:21;14.40;99.90
20416;DHT22;10367;52.202;5.996;2023-10-19T09:18:54;14.50;99.90
20416;DHT22;10367;52.202;5.996;2023-10-19T09:21:23;14.50;99.90
20416;DHT22;10367;52.202;5.996;2023-10-19T09:23:54;14.50;99.90
20416;DHT22;10367;52.202;5.996;2023-10-19T09:26:23;14.50;99.90
20416;DHT22;10367;52.202;5.996;2023-10-19T09:28:55;14.50;99.90
20416;DHT22;10367;52.202;5.996;2023-10-19T09:31:24;14.60;99.90
20416;DHT22;10367;52.202;5.996;2023-10-19T09:33:54;14.60;99.90
20416;DHT22;10367;52.202;5.996;2023-10-19T09:36:25;14.70;99.90
20416;DHT22;10367;52.202;5.996;2023-10-19T09:38:57;14.80;99.90
20416;DHT22;10367;52.202;5.996;2023-10-19T09:41:26;14.90;99.90
20416;DHT22;10367;52.202;5.996;2023-10-19T09:44:01;15.10;99.90
20416;DHT22;10367;52.202;5.996;2023-10-19T09:46:34;15.30;99.90
20416;DHT22;10367;52.202;5.996;2023-10-19T09:49:12;15.50;99.90
20416;DHT22;10367;52.202;5.996;2023-10-19T09:51:44;15.70;99.90
20416;DHT22;10367;52.202;5.996;2023-10-19T09:54:44;15.70;99.90
20416;DHT22;10367;52.202;5.996;2023-10-19T09:57:24;15.70;99.90
20416;DHT22;10367;52.202;5.996;2023-10-19T10:00:00;15.70;99.90
20416;DHT22;10367;52.202;5.996;2023-10-19T10:02:36;15.80;99.90
20416;DHT22;10367;52.202;5.996;2023-10-19T10:05:48;15.90;99.90
20416;DHT22;10367;52.202;5.996;2023-10-19T10:08:30;16.00;99.90
20416;DHT22;10367;52.202;5.996;2023-10-19T10:11:15;16.30;99.90
20416;DHT22;10367;52.202;5.996;2023-10-19T10:13:45;16.50;99.90
20416;DHT22;10367;52.202;5.996;2023-10-19T10:16:20;16.60;99.90
20416;DHT22;10367;52.202;5.996;2023-10-19T10:18:51;16.70;99.90
20416;DHT22;10367;52.202;5.996;2023-10-19T10:21:24;16.70;99.90
20416;DHT22;10367;52.202;5.996;2023-10-19T10:23:56;16.70;99.90
20416;DHT22;10367;52.202;5.996;2023-10-19T10:26:30;17.00;99.90
20416;DHT22;10367;52.202;5.996;2023-10-19T10:29:14;17.20;99.90
20416;DHT22;10367;52.202;5.996;2023-10-19T10:31:49;17.30;99.90
20416;DHT22;10367;52.202;5.996;2023-10-19T10:34:42;17.30;99.90
20416;DHT22;10367;52.202;5.996;2023-10-19T10:37:13;17.30;99.90
20416;DHT22;10367;52.202;5.996;2023-10-19T10:39:42;17.30;99.90
20416;DHT22;10367;52.202;5.996;2023-10-19T10:42:13;17.20;99.90
20416;DHT22;10367;52.202;5.996;2023-10-19T10:44:44;17.20;99.90
20416;DHT22;10367;52.202;5.996;2023-10-19T10:47:19;17.20;99.90
20416;DHT22;10367;52.202;5.996;2023-10-19T10:49:51;17.10;99.90
20416;DHT22;10367;52.202;5.996;2023-10-19T10:52:29;17.00;99.90
20416;DHT22;10367;52.202;5.996;2023-10-19T10:55:08;17.00;99.90
20416;DHT22;10367;52.202;5.996;2023-10-19T10:57:40;16.90;99.90
20416;DHT22;10367;52.202;5.996;2023-10-19T11:00:10;16.90;99.90
20416;DHT22;10367;52.202;5.996;2023-10-19T11:02:47;16.90;99.90
20416;DHT22;10367;52.202;5.996;2023-10-19T11:05:28;17.00;99.90
20416;DHT22;10367;52.202;5.996;2023-10-19T11:08:06;17.10;99.90
20416;DHT22;10367;52.202;5.996;2023-10-19T11:10:36;17.10;99.90
20416;DHT22;10367;52.202;5.996;2023-10-19T11:13:06;17.00;99.90
20416;DHT22;10367;52.202;5.996;2023-10-19T11:15:50;17.10;99.90
20416;DHT22;10367;52.202;5.996;2023-10-19T11:18:30;17.10;99.90
20416;DHT22;10367;52.202;5.996;2023-10-19T11:21:01;17.10;99.90
20416;DHT22;10367;52.202;5.996;2023-10-19T11:23:37;17.20;99.90
20416;DHT22;10367;52.202;5.996;2023-10-19T11:26:08;17.30;99.90
20416;DHT22;10367;52.202;5.996;2023-10-19T11:28:40;17.30;99.90
20416;DHT22;10367;52.202;5.996;2023-10-19T11:31:17;17.30;99.90
20416;DHT22;10367;52.202;5.996;2023-10-19T11:33:47;17.30;99.90
20416;DHT22;10367;52.202;5.996;2023-10-19T11:36:17;17.20;99.90
20416;DHT22;10367;52.202;5.996;2023-10-19T11:38:53;17.10;99.90
20416;DHT22;10367;52.202;5.996;2023-10-19T11:41:24;17.10;99.90
20416;DHT22;10367;52.202;5.996;2023-10-19T11:43:53;17.10;99.90
20416;DHT22;10367;52.202;5.996;2023-10-19T11:46:26;17.20;99.90
20416;DHT22;10367;52.202;5.996;2023-10-19T11:49:00;17.20;99.90
20416;DHT22;10367;52.202;5.996;2023-10-19T11:51:34;17.30;99.90
20416;DHT22;10367;52.202;5.996;2023-10-19T11:54:11;17.30;99.90
20416;DHT22;10367;52.202;5.996;2023-10-19T11:56:40;17.50;99.90
20416;DHT22;10367;52.202;5.996;2023-10-19T11:59:08;17.70;99.90
20416;DHT22;10367;52.202;5.996;2023-10-19T12:01:44;18.00;99.90
20416;DHT22;10367;52.202;5.996;2023-10-19T12:04:14;18.10;99.90
20416;DHT22;10367;52.202;5.996;2023-10-19T12:06:43;18.10;99.90
20416;DHT22;10367;52.202;5.996;2023-10-19T12:09:19;18.20;99.90
20416;DHT22;10367;52.202;5.996;2023-10-19T12:11:53;18.50;99.90
20416;DHT22;10367;52.202;5.996;2023-10-19T12:14:23;18.80;99.90
20416;DHT22;10367;52.202;5.996;2023-10-19T12:16:53;19.00;99.90
20416;DHT22;10367;52.202;5.996;2023-10-19T12:19:25;19.00;99.90
20416;DHT22;10367;52.202;5.996;2023-10-19T12:21:54;18.80;99.90
20416;DHT22;10367;52.202;5.996;2023-10-19T12:24:32;18.70;99.90
20416;DHT22;10367;52.202;5.996;2023-10-19T12:27:06;18.50;99.90
20416;DHT22;10367;52.202;5.996;2023-10-19T12:29:40;18.60;99.90
20416;DHT22;10367;52.202;5.996;2023-10-19T12:32:11;18.50;99.90
20416;DHT22;10367;52.202;5.996;2023-10-19T12:34:41;18.40;99.90
20416;DHT22;10367;52.202;5.996;2023-10-19T12:37:12;18.50;99.90
20416;DHT22;10367;52.202;5.996;2023-10-19T12:39:50;18.50;99.90
20416;DHT22;10367;52.202;5.996;2023-10-19T12:42:21;18.40;99.90
20416;DHT22;10367;52.202;5.996;2023-10-19T12:44:50;18.30;99.90
20416;DHT22;10367;52.202;5.996;2023-10-19T12:47:23;18.10;99.90
20416;DHT22;10367;52.202;5.996;2023-10-19T12:50:05;18.10;99.90
20416;DHT22;10367;52.202;5.996;2023-10-19T12:52:34;18.10;99.90
20416;DHT22;10367;52.202;5.996;2023-10-19T12:55:14;18.10;99.90
20416;DHT22;10367;52.202;5.996;2023-10-19T12:57:46;18.10;99.90
20416;DHT22;10367;52.202;5.996;2023-10-19T13:00:18;18.10;99.90
20416;DHT22;10367;52.202;5.996;2023-10-19T13:03:00;18.00;99.90
20416;DHT22;10367;52.202;5.996;2023-10-19T13:05:35;18.00;99.90
20416;DHT22;10367;52.202;5.996;2023-10-19T13:08:06;18.00;99.90
20416;DHT22;10367;52.202;5.996;2023-10-19T13:10:36;17.90;99.90
20416;DHT22;10367;52.202;5.996;2023-10-19T13:13:12;17.90;99.90
20416;DHT22;10367;52.202;5.996;2023-10-19T13:15:44;17.80;99.90
20416;DHT22;10367;52.202;5.996;2023-10-19T13:18:16;17.90;99.90
20416;DHT22;10367;52.202;5.996;2023-10-19T13:20:47;17.90;99.90
20416;DHT22;10367;52.202;5.996;2023-10-19T13:23:17;17.90;99.90
20416;DHT22;10367;52.202;5.996;2023-10-19T13:25:53;18.00;99.90
20416;DHT22;10367;52.202;5.996;2023-10-19T13:28:27;18.00;99.90
20416;DHT22;10367;52.202;5.996;2023-10-19T13:30:56;18.00;99.90
20416;DHT22;10367;52.202;5.996;2023-10-19T13:33:31;17.90;99.90
20416;DHT22;10367;52.202;5.996;2023-10-19T13:36:01;17.80;99.90
20416;DHT22;10367;52.202;5.996;2023-10-19T13:38:34;17.70;99.90
20416;DHT22;10367;52.202;5.996;2023-10-19T13:41:05;17.50;99.90
20416;DHT22;10367;52.202;5.996;2023-10-19T13:43:42;17.40;99.90
20416;DHT22;10367;52.202;5.996;2023-10-19T13:46:12;17.40;99.90
20416;DHT22;10367;52.202;5.996;2023-10-19T13:48:44;17.30;99.90
20416;DHT22;10367;52.202;5.996;2023-10-19T13:51:19;17.40;99.90
20416;DHT22;10367;52.202;5.996;2023-10-19T13:53:48;17.40;99.90
20416;DHT22;10367;52.202;5.996;2023-10-19T13:56:19;17.40;99.90
20416;DHT22;10367;52.202;5.996;2023-10-19T13:58:51;17.40;99.90
20416;DHT22;10367;52.202;5.996;2023-10-19T14:01:20;17.40;99.90
20416;DHT22;10367;52.202;5.996;2023-10-19T14:03:55;17.20;99.90
20416;DHT22;10367;52.202;5.996;2023-10-19T14:06:24;17.20;99.90
20416;DHT22;10367;52.202;5.996;2023-10-19T14:08:57;17.20;99.90
20416;DHT22;10367;52.202;5.996;2023-10-19T14:11:30;17.10;99.90
20416;DHT22;10367;52.202;5.996;2023-10-19T14:13:59;17.10;99.90
20416;DHT22;10367;52.202;5.996;2023-10-19T14:16:28;17.10;99.90
20416;DHT22;10367;52.202;5.996;2023-10-19T14:18:57;17.00;99.90
20416;DHT22;10367;52.202;5.996;2023-10-19T14:21:28;17.00;99.90
20416;DHT22;10367;52.202;5.996;2023-10-19T14:24:10;16.90;99.90
20416;DHT22;10367;52.202;5.996;2023-10-19T14:26:40;16.80;99.90
20416;DHT22;10367;52.202;5.996;2023-10-19T14:29:10;16.80;99.90
20416;DHT22;10367;52.202;5.996;2023-10-19T14:31:40;16.80;99.90
20416;DHT22;10367;52.202;5.996;2023-10-19T14:34:09;16.80;99.90
20416;DHT22;10367;52.202;5.996;2023-10-19T14:36:38;16.80;99.90
20416;DHT22;10367;52.202;5.996;2023-10-19T14:39:07;16.80;99.90
20416;DHT22;10367;52.202;5.996;2023-10-19T14:41:42;16.80;99.90
20416;DHT22;10367;52.202;5.996;2023-10-19T14:44:11;16.80;99.90
20416;DHT22;10367;52.202;5.996;2023-10-19T14:46:40;16.70;99.90
20416;DHT22;10367;52.202;5.996;2023-10-19T14:49:09;16.70;99.90
20416;DHT22;10367;52.202;5.996;2023-10-19T14:51:37;16.50;99.90
20416;DHT22;10367;52.202;5.996;2023-10-19T14:54:06;16.50;99.90
20416;DHT22;10367;52.202;5.996;2023-10-19T14:56:35;16.40;99.90
20416;DHT22;10367;52.202;5.996;2023-10-19T14:59:05;16.40;99.90
20416;DHT22;10367;52.202;5.996;2023-10-19T15:01:37;16.30;99.90
20416;DHT22;10367;52.202;5.996;2023-10-19T15:04:07;16.30;99.90
20416;DHT22;10367;52.202;5.996;2023-10-19T15:06:35;16.30;99.90
20416;DHT22;10367;52.202;5.996;2023-10-19T15:09:06;16.20;99.90
20416;DHT22;10367;52.202;5.996;2023-10-19T15:11:43;16.20;99.90
20416;DHT22;10367;52.202;5.996;2023-10-19T15:14:14;16.20;99.90
20416;DHT22;10367;52.202;5.996;2023-10-19T15:16:43;16.20;99.90
20416;DHT22;10367;52.202;5.996;2023-10-19T15:19:13;16.20;99.90
20416;DHT22;10367;52.202;5.996;2023-10-19T15:21:45;16.20;99.90
20416;DHT22;10367;52.202;5.996;2023-10-19T15:24:14;16.20;99.90
20416;DHT22;10367;52.202;5.996;2023-10-19T15:26:43;16.20;99.90
20416;DHT22;10367;52.202;5.996;2023-10-19T15:29:13;16.10;99.90
20416;DHT22;10367;52.202;5.996;2023-10-19T15:31:42;16.00;99.90
20416;DHT22;10367;52.202;5.996;2023-10-19T15:34:11;16.00;99.90
20416;DHT22;10367;52.202;5.996;2023-10-19T15:36:45;15.90;99.90
20416;DHT22;10367;52.202;5.996;2023-10-19T15:39:14;15.90;99.90
20416;DHT22;10367;52.202;5.996;2023-10-19T15:41:43;15.90;99.90
20416;DHT22;10367;52.202;5.996;2023-10-19T15:44:13;15.80;99.90
20416;DHT22;10367;52.202;5.996;2023-10-19T15:46:42;15.70;99.90
20416;DHT22;10367;52.202;5.996;2023-10-19T15:49:13;15.70;99.90
20416;DHT22;10367;52.202;5.996;2023-10-19T15:51:44;15.70;99.90
20416;DHT22;10367;52.202;5.996;2023-10-19T15:54:12;15.70;99.90
20416;DHT22;10367;52.202;5.996;2023-10-19T15:56:41;15.60;99.90
20416;DHT22;10367;52.202;5.996;2023-10-19T15:59:10;15.60;99.90
20416;DHT22;10367;52.202;5.996;2023-10-19T16:01:43;15.50;99.90
20416;DHT22;10367;52.202;5.996;2023-10-19T16:04:12;15.50;99.90
20416;DHT22;10367;52.202;5.996;2023-10-19T16:06:43;15.50;99.90
20416;DHT22;10367;52.202;5.996;2023-10-19T16:09:14;15.40;99.90
20416;DHT22;10367;52.202;5.996;2023-10-19T16:11:43;15.40;99.90